Main page
METAR-TAF:

METAR-TAF

Airports :

Sardar Vallabhbhai Patel International Airport

Ahmedabad, India

latitude: 23-04N, longitude: 072-38E, elevation: 55 m

Current weather observation

The report was made 1 hour and 50 minutes ago, at 03:30 UTC
Wind 6 kt from the West
Temperature 28°C
Humidity 84%
Pressure 1008 hPa
Visibility: 4000 m
Few clouds at a height of 2000 ft
Scattered clouds at a height of 2500 ft
haze

METAR: VAAH 250330Z 28006KT 4000 HZ FEW020 SCT025 28/25 Q1008 NOSIG

Time: 10:50 (05:20 UTC)

Forecast

The report was made 3 hours and 20 minutes ago, at 02:00 UTC
Forecast valid from 25 at 03 UTC to 25 at 12 UTC
Wind 6 kt from the West/Southwest
Visibility: 3000 m
Few clouds at a height of 2000 ft
mist
Becoming
from 25 at 04 UTC to 25 at 06 UTC
Wind 4 kt from the Southwest
Visibility: 4000 m
Few clouds at a height of 2000 ft
haze
Becoming
from 25 at 06 UTC to 25 at 08 UTC
Visibility: 6000 m

TAF: VAAH 250200Z 2503/2512 25006KT 3000 BR FEW020 BECMG 2504/2506 23004KT 4000 HZ FEW020 BECMG 2506/2508 6000

Weather observations and forecasts of more than 4000 airports (METAR and TAF reports).

The available stations are represented by yellow and red dots on the map.

Hover mouse over dot to see the name of the station.

Then click to see weather observations and forecasts.

To change the map : click on the green buttons with a black cross to zoom in, on the green button with a dash to zoom out, or on the green arrows for adjacent maps.


METAR-TAF: